Archival Weather

Sydney Intl

Sydney, Australia (YSSY)

Report from: Saturday, March 18, 2023 5:30 PM AEDT
Current time: Sunday, July 14, 2024 11:40 AM AEST

Current weather – Weather history – Daily summaries
Weather forecast

Temperature28.0°C (82.4°F)
Heat index30.4°C (86.6°F)
Dew point21.0°C (69.8°F)
Winds 20 kts (10.3 m/s, 23 mph) North-Northeast (30°)
Clouds Sky clear
Altimeter30.00 in.Hg (1016 mB)
Relative humidity66 %
Density altitude1,739 ft. (530 m)
Remarks Ceiling and visibility OK
Flight conditions Visual Meteorological Conditions
Raw dataYSSY 180630Z 03020KT CAVOK 28/21 Q1016 CLOSED, REOPENS 09:00Z
An error has occurred. This application may no longer respond until reloaded. Reload 🗙